sensor_id;sensor_type;location;lat;lon;timestamp;pressure;altitude;pressure_sealevel;temperature;humidity
69566;BME280;56777;55.930;37.524;2023-12-04T00:00:24;101009.69;;;6.87;79.47
69566;BME280;56777;55.930;37.524;2023-12-04T00:02:49;101027.31;;;6.71;79.54
69566;BME280;56777;55.930;37.524;2023-12-04T00:05:15;101033.69;;;6.80;79.75
69566;BME280;56777;55.930;37.524;2023-12-04T00:07:40;101021.56;;;6.80;79.31
69566;BME280;56777;55.930;37.524;2023-12-04T00:10:06;101028.13;;;6.93;78.15
69566;BME280;56777;55.930;37.524;2023-12-04T00:12:32;101019.19;;;6.86;78.32
69566;BME280;56777;55.930;37.524;2023-12-04T00:14:58;101015.53;;;6.81;78.40
69566;BME280;56777;55.930;37.524;2023-12-04T00:17:23;101031.56;;;6.69;78.50
69566;BME280;56777;55.930;37.524;2023-12-04T00:19:49;101017.38;;;6.61;78.20
69566;BME280;56777;55.930;37.524;2023-12-04T00:22:14;101037.50;;;6.65;78.18
69566;BME280;56777;55.930;37.524;2023-12-04T00:24:40;101024.59;;;6.68;77.65
69566;BME280;56777;55.930;37.524;2023-12-04T00:27:05;101023.63;;;6.66;77.63
69566;BME280;56777;55.930;37.524;2023-12-04T00:29:31;101019.25;;;6.65;77.89
69566;BME280;56777;55.930;37.524;2023-12-04T00:31:56;101016.13;;;6.74;77.22
69566;BME280;56777;55.930;37.524;2023-12-04T00:34:22;101022.81;;;6.67;77.04
69566;BME280;56777;55.930;37.524;2023-12-04T00:36:48;101019.38;;;6.68;76.44
69566;BME280;56777;55.930;37.524;2023-12-04T00:39:14;101027.00;;;6.64;76.26
69566;BME280;56777;55.930;37.524;2023-12-04T00:41:39;101038.56;;;6.70;76.26
69566;BME280;56777;55.930;37.524;2023-12-04T00:44:05;101029.91;;;6.71;75.80
69566;BME280;56777;55.930;37.524;2023-12-04T00:46:30;101032.50;;;6.71;76.55
69566;BME280;56777;55.930;37.524;2023-12-04T00:48:56;101031.94;;;6.79;75.93
69566;BME280;56777;55.930;37.524;2023-12-04T00:51:21;101019.72;;;6.77;75.66
69566;BME280;56777;55.930;37.524;2023-12-04T00:53:47;101028.78;;;6.87;76.01
69566;BME280;56777;55.930;37.524;2023-12-04T00:56:12;101029.97;;;6.95;75.45
69566;BME280;56777;55.930;37.524;2023-12-04T00:58:38;101027.19;;;6.91;76.18
69566;BME280;56777;55.930;37.524;2023-12-04T01:01:04;101046.72;;;7.02;75.83
69566;BME280;56777;55.930;37.524;2023-12-04T01:03:29;101051.03;;;7.02;75.08
69566;BME280;56777;55.930;37.524;2023-12-04T01:05:58;101055.84;;;6.91;75.31
69566;BME280;56777;55.930;37.524;2023-12-04T01:08:24;101066.81;;;7.06;74.87
69566;BME280;56777;55.930;37.524;2023-12-04T01:10:49;101066.56;;;6.98;75.47
69566;BME280;56777;55.930;37.524;2023-12-04T01:13:15;101058.66;;;6.97;75.25
69566;BME280;56777;55.930;37.524;2023-12-04T01:15:41;101069.31;;;7.03;74.82
69566;BME280;56777;55.930;37.524;2023-12-04T01:18:08;101067.44;;;6.99;74.95
69566;BME280;56777;55.930;37.524;2023-12-04T01:20:34;101082.06;;;6.95;75.38
69566;BME280;56777;55.930;37.524;2023-12-04T01:22:59;101089.22;;;7.01;74.30
69566;BME280;56777;55.930;37.524;2023-12-04T01:25:25;101086.78;;;6.83;74.44
69566;BME280;56777;55.930;37.524;2023-12-04T01:27:50;101094.31;;;6.75;74.74
69566;BME280;56777;55.930;37.524;2023-12-04T01:30:16;101095.78;;;6.69;74.38
69566;BME280;56777;55.930;37.524;2023-12-04T01:32:42;101087.56;;;6.81;73.76
69566;BME280;56777;55.930;37.524;2023-12-04T01:35:07;101084.03;;;6.58;72.98
69566;BME280;56777;55.930;37.524;2023-12-04T01:37:33;101068.16;;;6.72;72.73
69566;BME280;56777;55.930;37.524;2023-12-04T01:39:58;101056.25;;;6.79;72.13
69566;BME280;56777;55.930;37.524;2023-12-04T01:42:24;101051.81;;;6.54;71.96
69566;BME280;56777;55.930;37.524;2023-12-04T01:44:49;101062.28;;;6.56;71.62
69566;BME280;56777;55.930;37.524;2023-12-04T01:47:15;101055.66;;;6.41;71.33
69566;BME280;56777;55.930;37.524;2023-12-04T01:49:42;101064.06;;;6.57;71.03
69566;BME280;56777;55.930;37.524;2023-12-04T01:52:07;101074.78;;;6.64;71.53
69566;BME280;56777;55.930;37.524;2023-12-04T01:54:33;101082.91;;;6.51;71.61
69566;BME280;56777;55.930;37.524;2023-12-04T01:56:59;101078.78;;;6.56;71.57
69566;BME280;56777;55.930;37.524;2023-12-04T01:59:25;101079.16;;;6.65;71.29
69566;BME280;56777;55.930;37.524;2023-12-04T02:01:52;101088.84;;;6.69;71.08
69566;BME280;56777;55.930;37.524;2023-12-04T02:04:18;101092.50;;;6.52;71.83
69566;BME280;56777;55.930;37.524;2023-12-04T02:06:43;101087.44;;;6.34;71.59
69566;BME280;56777;55.930;37.524;2023-12-04T02:09:09;101101.34;;;6.35;71.75
69566;BME280;56777;55.930;37.524;2023-12-04T02:11:38;101103.19;;;6.37;71.64
69566;BME280;56777;55.930;37.524;2023-12-04T02:14:05;101106.13;;;6.24;72.19
69566;BME280;56777;55.930;37.524;2023-12-04T02:16:32;101104.41;;;6.24;71.94
69566;BME280;56777;55.930;37.524;2023-12-04T02:19:01;101100.72;;;6.19;71.65
69566;BME280;56777;55.930;37.524;2023-12-04T02:21:27;101106.59;;;6.15;70.94
69566;BME280;56777;55.930;37.524;2023-12-04T02:23:53;101107.44;;;6.14;71.04
69566;BME280;56777;55.930;37.524;2023-12-04T02:26:28;101111.38;;;6.25;70.88
69566;BME280;56777;55.930;37.524;2023-12-04T02:28:59;101116.84;;;6.11;71.09
69566;BME280;56777;55.930;37.524;2023-12-04T02:31:27;101117.25;;;6.00;71.09
69566;BME280;56777;55.930;37.524;2023-12-04T02:33:55;101135.53;;;6.02;71.07
69566;BME280;56777;55.930;37.524;2023-12-04T02:36:24;101144.09;;;5.99;70.33
69566;BME280;56777;55.930;37.524;2023-12-04T02:38:50;101141.00;;;5.88;70.56
69566;BME280;56777;55.930;37.524;2023-12-04T02:41:16;101149.63;;;5.87;70.52
69566;BME280;56777;55.930;37.524;2023-12-04T02:43:43;101152.50;;;5.74;70.13
69566;BME280;56777;55.930;37.524;2023-12-04T02:46:09;101156.00;;;5.75;69.83
69566;BME280;56777;55.930;37.524;2023-12-04T02:48:34;101147.66;;;5.62;70.44
69566;BME280;56777;55.930;37.524;2023-12-04T02:51:00;101153.03;;;5.86;69.82
69566;BME280;56777;55.930;37.524;2023-12-04T02:53:25;101150.16;;;5.80;69.93
69566;BME280;56777;55.930;37.524;2023-12-04T02:55:51;101150.25;;;5.62;69.44
69566;BME280;56777;55.930;37.524;2023-12-04T02:58:16;101151.69;;;5.75;69.46
69566;BME280;56777;55.930;37.524;2023-12-04T03:00:42;101151.13;;;5.63;69.21
69566;BME280;56777;55.930;37.524;2023-12-04T03:03:07;101144.22;;;5.63;68.89
69566;BME280;56777;55.930;37.524;2023-12-04T03:05:33;101150.13;;;5.59;69.17
69566;BME280;56777;55.930;37.524;2023-12-04T03:07:58;101153.72;;;5.63;69.16
69566;BME280;56777;55.930;37.524;2023-12-04T03:10:24;101157.03;;;5.59;69.21
69566;BME280;56777;55.930;37.524;2023-12-04T03:12:49;101154.91;;;5.70;69.23
69566;BME280;56777;55.930;37.524;2023-12-04T03:15:15;101156.34;;;5.82;68.14
69566;BME280;56777;55.930;37.524;2023-12-04T03:17:40;101162.09;;;5.56;69.19
69566;BME280;56777;55.930;37.524;2023-12-04T03:20:06;101170.16;;;5.62;69.04
69566;BME280;56777;55.930;37.524;2023-12-04T03:22:34;101174.81;;;5.50;68.46
69566;BME280;56777;55.930;37.524;2023-12-04T03:25:00;101166.09;;;5.49;67.93
69566;BME280;56777;55.930;37.524;2023-12-04T03:27:26;101187.69;;;5.47;67.97
69566;BME280;56777;55.930;37.524;2023-12-04T03:29:51;101187.31;;;5.39;68.25
69566;BME280;56777;55.930;37.524;2023-12-04T03:32:17;101191.75;;;5.41;67.69
69566;BME280;56777;55.930;37.524;2023-12-04T03:34:42;101188.59;;;5.67;67.71
69566;BME280;56777;55.930;37.524;2023-12-04T03:37:08;101189.72;;;5.54;67.31
69566;BME280;56777;55.930;37.524;2023-12-04T03:39:33;101190.75;;;5.77;67.39
69566;BME280;56777;55.930;37.524;2023-12-04T03:41:59;101182.69;;;5.71;66.69
69566;BME280;56777;55.930;37.524;2023-12-04T03:44:25;101180.44;;;5.59;67.06
69566;BME280;56777;55.930;37.524;2023-12-04T03:46:50;101183.03;;;5.59;66.61
69566;BME280;56777;55.930;37.524;2023-12-04T03:49:17;101166.81;;;5.64;66.31
69566;BME280;56777;55.930;37.524;2023-12-04T03:51:42;101172.75;;;5.62;66.39
69566;BME280;56777;55.930;37.524;2023-12-04T03:54:08;101178.97;;;5.65;65.94
69566;BME280;56777;55.930;37.524;2023-12-04T03:56:33;101181.66;;;5.67;65.84
69566;BME280;56777;55.930;37.524;2023-12-04T03:58:59;101197.28;;;5.67;65.93
69566;BME280;56777;55.930;37.524;2023-12-04T04:01:24;101206.13;;;5.72;66.19
69566;BME280;56777;55.930;37.524;2023-12-04T04:03:50;101220.03;;;5.53;67.24
69566;BME280;56777;55.930;37.524;2023-12-04T04:06:15;101212.16;;;5.52;66.98
69566;BME280;56777;55.930;37.524;2023-12-04T04:08:41;101198.41;;;5.54;66.97
69566;BME280;56777;55.930;37.524;2023-12-04T04:11:07;101199.44;;;5.58;66.33
69566;BME280;56777;55.930;37.524;2023-12-04T04:13:32;101187.22;;;5.55;67.04
69566;BME280;56777;55.930;37.524;2023-12-04T04:15:58;101199.69;;;5.45;67.33
69566;BME280;56777;55.930;37.524;2023-12-04T04:18:24;101208.59;;;5.50;67.12
69566;BME280;56777;55.930;37.524;2023-12-04T04:20:49;101219.25;;;5.36;66.80
69566;BME280;56777;55.930;37.524;2023-12-04T04:23:15;101230.75;;;5.41;66.79
69566;BME280;56777;55.930;37.524;2023-12-04T04:25:40;101217.66;;;5.40;67.08
69566;BME280;56777;55.930;37.524;2023-12-04T04:28:06;101186.72;;;5.45;66.96
69566;BME280;56777;55.930;37.524;2023-12-04T04:30:31;101202.06;;;5.40;66.29
69566;BME280;56777;55.930;37.524;2023-12-04T04:32:57;101214.56;;;5.47;66.40
69566;BME280;56777;55.930;37.524;2023-12-04T04:35:22;101230.47;;;5.35;67.14
69566;BME280;56777;55.930;37.524;2023-12-04T04:37:48;101233.88;;;5.34;66.90
69566;BME280;56777;55.930;37.524;2023-12-04T04:40:13;101228.31;;;5.64;65.52
69566;BME280;56777;55.930;37.524;2023-12-04T04:42:39;101230.59;;;5.38;67.20
69566;BME280;56777;55.930;37.524;2023-12-04T04:45:05;101228.09;;;5.22;66.76
69566;BME280;56777;55.930;37.524;2023-12-04T04:47:30;101241.22;;;5.25;67.39
69566;BME280;56777;55.930;37.524;2023-12-04T04:49:56;101232.75;;;5.29;66.25
69566;BME280;56777;55.930;37.524;2023-12-04T04:52:21;101243.66;;;5.40;66.09
69566;BME280;56777;55.930;37.524;2023-12-04T04:54:47;101237.28;;;5.33;66.04
69566;BME280;56777;55.930;37.524;2023-12-04T04:57:12;101225.63;;;5.25;66.06
69566;BME280;56777;55.930;37.524;2023-12-04T04:59:38;101209.75;;;5.19;66.51
69566;BME280;56777;55.930;37.524;2023-12-04T05:02:03;101217.94;;;5.09;66.38
69566;BME280;56777;55.930;37.524;2023-12-04T05:04:30;101222.97;;;5.06;65.82
69566;BME280;56777;55.930;37.524;2023-12-04T05:06:55;101232.97;;;5.34;64.62
69566;BME280;56777;55.930;37.524;2023-12-04T05:09:21;101238.69;;;5.45;64.82
69566;BME280;56777;55.930;37.524;2023-12-04T05:11:46;101243.81;;;5.25;65.27
69566;BME280;56777;55.930;37.524;2023-12-04T05:14:12;101226.38;;;5.23;65.91
69566;BME280;56777;55.930;37.524;2023-12-04T05:16:37;101241.56;;;5.51;65.39
69566;BME280;56777;55.930;37.524;2023-12-04T05:19:03;101249.63;;;5.19;66.70
69566;BME280;56777;55.930;37.524;2023-12-04T05:21:28;101246.06;;;5.35;66.68
69566;BME280;56777;55.930;37.524;2023-12-04T05:23:54;101259.69;;;5.31;67.34
69566;BME280;56777;55.930;37.524;2023-12-04T05:26:20;101261.19;;;5.44;67.26
69566;BME280;56777;55.930;37.524;2023-12-04T05:28:45;101252.88;;;5.33;67.82
69566;BME280;56777;55.930;37.524;2023-12-04T05:31:11;101229.81;;;5.04;67.02
69566;BME280;56777;55.930;37.524;2023-12-04T05:33:37;101246.88;;;4.99;65.62
69566;BME280;56777;55.930;37.524;2023-12-04T05:36:03;101251.97;;;5.15;65.68
69566;BME280;56777;55.930;37.524;2023-12-04T05:38:28;101270.09;;;5.13;66.14
69566;BME280;56777;55.930;37.524;2023-12-04T05:40:54;101270.31;;;4.82;64.93
69566;BME280;56777;55.930;37.524;2023-12-04T05:43:20;101274.91;;;5.06;64.33
69566;BME280;56777;55.930;37.524;2023-12-04T05:45:45;101293.09;;;5.06;64.61
69566;BME280;56777;55.930;37.524;2023-12-04T05:48:11;101306.78;;;4.67;63.35
69566;BME280;56777;55.930;37.524;2023-12-04T05:50:36;101299.53;;;4.78;62.70
69566;BME280;56777;55.930;37.524;2023-12-04T05:53:02;101304.44;;;4.90;62.54
69566;BME280;56777;55.930;37.524;2023-12-04T05:55:27;101321.53;;;4.68;62.04
69566;BME280;56777;55.930;37.524;2023-12-04T05:57:53;101327.13;;;4.76;62.45
69566;BME280;56777;55.930;37.524;2023-12-04T06:00:18;101326.13;;;4.74;62.27
69566;BME280;56777;55.930;37.524;2023-12-04T06:02:44;101348.88;;;4.45;64.17
69566;BME280;56777;55.930;37.524;2023-12-04T06:05:10;101351.31;;;4.59;63.68
69566;BME280;56777;55.930;37.524;2023-12-04T06:07:37;101345.25;;;4.42;64.70
69566;BME280;56777;55.930;37.524;2023-12-04T06:10:03;101347.16;;;4.62;66.17
69566;BME280;56777;55.930;37.524;2023-12-04T06:12:30;101352.97;;;4.74;66.53
69566;BME280;56777;55.930;37.524;2023-12-04T06:14:56;101360.09;;;4.61;66.18
69566;BME280;56777;55.930;37.524;2023-12-04T06:17:21;101359.69;;;4.53;66.96
69566;BME280;56777;55.930;37.524;2023-12-04T06:19:47;101357.47;;;4.28;67.56
69566;BME280;56777;55.930;37.524;2023-12-04T06:22:13;101351.66;;;4.32;67.00
69566;BME280;56777;55.930;37.524;2023-12-04T06:24:39;101349.53;;;4.25;67.76
69566;BME280;56777;55.930;37.524;2023-12-04T06:27:05;101367.78;;;4.26;67.50
69566;BME280;56777;55.930;37.524;2023-12-04T06:29:34;101369.16;;;4.36;67.85
69566;BME280;56777;55.930;37.524;2023-12-04T06:32:01;101369.31;;;4.39;68.45
69566;BME280;56777;55.930;37.524;2023-12-04T06:34:27;101371.94;;;4.56;68.25
69566;BME280;56777;55.930;37.524;2023-12-04T06:36:53;101379.94;;;4.60;68.34
69566;BME280;56777;55.930;37.524;2023-12-04T06:39:20;101386.00;;;4.28;67.23
69566;BME280;56777;55.930;37.524;2023-12-04T06:41:47;101407.88;;;4.17;66.78
69566;BME280;56777;55.930;37.524;2023-12-04T06:44:14;101397.13;;;4.25;67.76
69566;BME280;56777;55.930;37.524;2023-12-04T06:46:40;101402.00;;;3.88;68.31
69566;BME280;56777;55.930;37.524;2023-12-04T06:49:08;101422.78;;;4.04;69.92
69566;BME280;56777;55.930;37.524;2023-12-04T06:51:34;101443.22;;;4.15;68.24
69566;BME280;56777;55.930;37.524;2023-12-04T06:54:00;101435.03;;;4.07;69.25
69566;BME280;56777;55.930;37.524;2023-12-04T06:56:25;101438.69;;;4.11;70.02
69566;BME280;56777;55.930;37.524;2023-12-04T06:58:51;101430.59;;;4.21;69.95
69566;BME280;56777;55.930;37.524;2023-12-04T07:01:16;101427.19;;;4.22;70.02
69566;BME280;56777;55.930;37.524;2023-12-04T07:03:42;101441.44;;;4.14;69.20
69566;BME280;56777;55.930;37.524;2023-12-04T07:06:08;101440.28;;;4.09;70.78
69566;BME280;56777;55.930;37.524;2023-12-04T07:08:33;101443.53;;;4.04;69.81
69566;BME280;56777;55.930;37.524;2023-12-04T07:10:59;101446.94;;;3.89;70.86
69566;BME280;56777;55.930;37.524;2023-12-04T07:13:24;101423.06;;;3.94;72.42
69566;BME280;56777;55.930;37.524;2023-12-04T07:15:50;101425.00;;;4.13;72.54
69566;BME280;56777;55.930;37.524;2023-12-04T07:18:16;101430.78;;;3.93;73.02
69566;BME280;56777;55.930;37.524;2023-12-04T07:20:42;101416.44;;;3.99;72.77
69566;BME280;56777;55.930;37.524;2023-12-04T07:23:07;101410.75;;;3.90;72.63
69566;BME280;56777;55.930;37.524;2023-12-04T07:25:34;101418.91;;;3.81;72.39
69566;BME280;56777;55.930;37.524;2023-12-04T07:27:59;101426.97;;;4.02;73.04
69566;BME280;56777;55.930;37.524;2023-12-04T07:30:25;101439.81;;;3.84;72.11
69566;BME280;56777;55.930;37.524;2023-12-04T07:32:51;101443.56;;;3.90;73.14
69566;BME280;56777;55.930;37.524;2023-12-04T07:35:18;101453.66;;;3.85;73.74
69566;BME280;56777;55.930;37.524;2023-12-04T07:37:44;101439.44;;;3.93;73.27
69566;BME280;56777;55.930;37.524;2023-12-04T07:40:10;101447.78;;;3.73;73.67
69566;BME280;56777;55.930;37.524;2023-12-04T07:42:36;101465.41;;;3.78;73.69
69566;BME280;56777;55.930;37.524;2023-12-04T07:45:02;101468.53;;;3.73;72.99
69566;BME280;56777;55.930;37.524;2023-12-04T07:47:28;101462.91;;;3.50;73.49
69566;BME280;56777;55.930;37.524;2023-12-04T07:49:54;101452.72;;;3.53;73.13
69566;BME280;56777;55.930;37.524;2023-12-04T07:52:19;101467.28;;;3.51;74.08
69566;BME280;56777;55.930;37.524;2023-12-04T07:54:45;101467.63;;;3.28;74.43
69566;BME280;56777;55.930;37.524;2023-12-04T07:57:10;101465.56;;;3.52;74.99
69566;BME280;56777;55.930;37.524;2023-12-04T07:59:36;101465.28;;;3.77;74.32
69566;BME280;56777;55.930;37.524;2023-12-04T08:02:01;101471.13;;;3.43;73.76
69566;BME280;56777;55.930;37.524;2023-12-04T08:04:27;101477.03;;;3.41;74.09
69566;BME280;56777;55.930;37.524;2023-12-04T08:06:53;101478.09;;;3.29;75.02
69566;BME280;56777;55.930;37.524;2023-12-04T08:09:18;101475.22;;;3.25;74.78
69566;BME280;56777;55.930;37.524;2023-12-04T08:11:45;101493.09;;;3.35;74.71
69566;BME280;56777;55.930;37.524;2023-12-04T08:14:10;101500.06;;;3.36;74.94
69566;BME280;56777;55.930;37.524;2023-12-04T08:16:37;101499.59;;;3.43;74.48
69566;BME280;56777;55.930;37.524;2023-12-04T08:19:02;101495.41;;;3.60;75.17
69566;BME280;56777;55.930;37.524;2023-12-04T08:21:28;101488.81;;;3.35;74.42
69566;BME280;56777;55.930;37.524;2023-12-04T08:23:53;101503.19;;;3.60;75.27
69566;BME280;56777;55.930;37.524;2023-12-04T08:26:22;101495.97;;;3.69;75.09
69566;BME280;56777;55.930;37.524;2023-12-04T08:28:52;101503.28;;;3.76;74.95
69566;BME280;56777;55.930;37.524;2023-12-04T08:31:18;101498.81;;;3.44;74.94
69566;BME280;56777;55.930;37.524;2023-12-04T08:33:43;101489.53;;;3.33;74.20
69566;BME280;56777;55.930;37.524;2023-12-04T08:36:10;101498.81;;;3.29;75.04
69566;BME280;56777;55.930;37.524;2023-12-04T08:38:36;101498.19;;;3.48;74.02
69566;BME280;56777;55.930;37.524;2023-12-04T08:41:04;101498.19;;;3.48;75.00
69566;BME280;56777;55.930;37.524;2023-12-04T08:43:30;101496.56;;;3.21;75.69
69566;BME280;56777;55.930;37.524;2023-12-04T08:45:56;101482.75;;;3.35;75.50
69566;BME280;56777;55.930;37.524;2023-12-04T08:48:22;101458.16;;;3.43;74.99
69566;BME280;56777;55.930;37.524;2023-12-04T08:50:48;101468.53;;;3.43;75.17
69566;BME280;56777;55.930;37.524;2023-12-04T08:53:14;101457.78;;;3.52;75.73
69566;BME280;56777;55.930;37.524;2023-12-04T08:55:39;101450.38;;;3.43;74.59
69566;BME280;56777;55.930;37.524;2023-12-04T08:58:05;101443.97;;;3.51;75.59
69566;BME280;56777;55.930;37.524;2023-12-04T09:00:32;101441.28;;;3.65;74.36
69566;BME280;56777;55.930;37.524;2023-12-04T09:02:58;101451.47;;;3.61;73.53
69566;BME280;56777;55.930;37.524;2023-12-04T09:05:23;101455.66;;;3.59;74.58
69566;BME280;56777;55.930;37.524;2023-12-04T09:07:49;101440.94;;;3.58;74.76
69566;BME280;56777;55.930;37.524;2023-12-04T09:10:14;101450.28;;;3.71;75.09
69566;BME280;56777;55.930;37.524;2023-12-04T09:12:40;101456.56;;;3.45;74.41
69566;BME280;56777;55.930;37.524;2023-12-04T09:15:06;101458.91;;;3.55;74.13
69566;BME280;56777;55.930;37.524;2023-12-04T09:17:32;101462.53;;;3.59;74.96
69566;BME280;56777;55.930;37.524;2023-12-04T09:19:58;101464.69;;;3.51;74.55
69566;BME280;56777;55.930;37.524;2023-12-04T09:22:24;101462.47;;;3.72;73.86
69566;BME280;56777;55.930;37.524;2023-12-04T09:24:49;101477.56;;;3.50;73.59
69566;BME280;56777;55.930;37.524;2023-12-04T09:27:15;101468.78;;;3.63;73.71
69566;BME280;56777;55.930;37.524;2023-12-04T09:29:42;101466.13;;;3.76;73.86
69566;BME280;56777;55.930;37.524;2023-12-04T09:32:08;101474.34;;;3.39;73.93
69566;BME280;56777;55.930;37.524;2023-12-04T09:34:35;101478.00;;;3.43;73.70
69566;BME280;56777;55.930;37.524;2023-12-04T09:37:00;101487.22;;;3.52;74.77
69566;BME280;56777;55.930;37.524;2023-12-04T09:39:26;101480.75;;;3.60;74.92
69566;BME280;56777;55.930;37.524;2023-12-04T09:41:52;101486.94;;;3.63;74.56
69566;BME280;56777;55.930;37.524;2023-12-04T09:44:19;101488.81;;;3.50;74.40
69566;BME280;56777;55.930;37.524;2023-12-04T09:46:45;101489.34;;;3.30;73.96
69566;BME280;56777;55.930;37.524;2023-12-04T09:49:11;101481.75;;;3.33;74.48
69566;BME280;56777;55.930;37.524;2023-12-04T09:51:37;101469.09;;;3.52;74.10
69566;BME280;56777;55.930;37.524;2023-12-04T09:54:03;101452.72;;;3.24;74.28
69566;BME280;56777;55.930;37.524;2023-12-04T09:56:30;101474.69;;;3.45;74.45
69566;BME280;56777;55.930;37.524;2023-12-04T09:58:59;101477.53;;;3.20;73.86
69566;BME280;56777;55.930;37.524;2023-12-04T10:01:26;101472.00;;;3.29;73.49
69566;BME280;56777;55.930;37.524;2023-12-04T10:03:52;101470.94;;;3.40;73.28
69566;BME280;56777;55.930;37.524;2023-12-04T10:06:19;101460.38;;;3.07;73.18
69566;BME280;56777;55.930;37.524;2023-12-04T10:08:45;101485.59;;;3.25;73.43
69566;BME280;56777;55.930;37.524;2023-12-04T10:11:12;101488.47;;;3.44;73.64
69566;BME280;56777;55.930;37.524;2023-12-04T10:13:38;101495.75;;;3.22;73.49
69566;BME280;56777;55.930;37.524;2023-12-04T10:16:05;101499.00;;;3.47;73.19
69566;BME280;56777;55.930;37.524;2023-12-04T10:18:31;101482.09;;;3.24;72.69
69566;BME280;56777;55.930;37.524;2023-12-04T10:20:57;101495.25;;;3.42;73.79
69566;BME280;56777;55.930;37.524;2023-12-04T10:23:40;101465.75;;;3.10;72.91
69566;BME280;56777;55.930;37.524;2023-12-04T10:26:06;101491.06;;;3.44;73.02
69566;BME280;56777;55.930;37.524;2023-12-04T10:28:34;101496.84;;;3.40;73.18
69566;BME280;56777;55.930;37.524;2023-12-04T10:30:59;101504.53;;;3.38;72.26
69566;BME280;56777;55.930;37.524;2023-12-04T10:33:25;101504.19;;;3.32;72.50
69566;BME280;56777;55.930;37.524;2023-12-04T10:35:54;101505.72;;;3.44;71.44
69566;BME280;56777;55.930;37.524;2023-12-04T10:38:22;101483.72;;;3.37;71.94
69566;BME280;56777;55.930;37.524;2023-12-04T10:40:48;101501.66;;;3.34;73.04
69566;BME280;56777;55.930;37.524;2023-12-04T10:43:17;101506.31;;;3.39;72.25
69566;BME280;56777;55.930;37.524;2023-12-04T10:45:45;101514.91;;;3.38;70.87
69566;BME280;56777;55.930;37.524;2023-12-04T10:48:12;101511.50;;;3.54;71.67
69566;BME280;56777;55.930;37.524;2023-12-04T10:50:39;101500.78;;;3.33;71.19
69566;BME280;56777;55.930;37.524;2023-12-04T10:53:07;101513.72;;;3.48;70.16
69566;BME280;56777;55.930;37.524;2023-12-04T10:55:34;101509.13;;;3.14;70.29
69566;BME280;56777;55.930;37.524;2023-12-04T10:58:01;101510.47;;;3.23;70.65
69566;BME280;56777;55.930;37.524;2023-12-04T11:00:30;101509.78;;;3.40;71.13
69566;BME280;56777;55.930;37.524;2023-12-04T11:03:05;101516.19;;;3.17;70.72
69566;BME280;56777;55.930;37.524;2023-12-04T11:05:36;101506.00;;;3.20;69.85
69566;BME280;56777;55.930;37.524;2023-12-04T11:08:02;101515.53;;;3.49;70.02
69566;BME280;56777;55.930;37.524;2023-12-04T11:10:31;101506.84;;;3.34;69.56
69566;BME280;56777;55.930;37.524;2023-12-04T11:13:17;101528.97;;;3.29;69.67
69566;BME280;56777;55.930;37.524;2023-12-04T11:15:48;101526.56;;;3.32;70.45
69566;BME280;56777;55.930;37.524;2023-12-04T11:18:16;101523.63;;;3.26;69.62
69566;BME280;56777;55.930;37.524;2023-12-04T11:21:09;101522.41;;;3.49;69.49
69566;BME280;56777;55.930;37.524;2023-12-04T11:23:37;101502.56;;;3.34;70.15
69566;BME280;56777;55.930;37.524;2023-12-04T11:26:07;101523.31;;;3.49;69.77
69566;BME280;56777;55.930;37.524;2023-12-04T11:28:34;101529.81;;;3.57;69.08
69566;BME280;56777;55.930;37.524;2023-12-04T11:31:02;101530.78;;;3.30;68.61
69566;BME280;56777;55.930;37.524;2023-12-04T11:33:27;101517.72;;;3.13;68.09
69566;BME280;56777;55.930;37.524;2023-12-04T11:36:06;101512.38;;;3.40;67.84
69566;BME280;56777;55.930;37.524;2023-12-04T11:38:31;101503.25;;;3.32;67.81
69566;BME280;56777;55.930;37.524;2023-12-04T11:40:58;101510.22;;;3.18;69.10
69566;BME280;56777;55.930;37.524;2023-12-04T11:43:25;101525.97;;;3.36;68.80
69566;BME280;56777;55.930;37.524;2023-12-04T11:45:53;101513.63;;;3.32;69.23
69566;BME280;56777;55.930;37.524;2023-12-04T11:48:23;101481.22;;;3.24;68.47
69566;BME280;56777;55.930;37.524;2023-12-04T11:50:51;101491.31;;;3.34;68.94
69566;BME280;56777;55.930;37.524;2023-12-04T11:53:17;101489.34;;;3.30;69.37
69566;BME280;56777;55.930;37.524;2023-12-04T11:55:43;101501.47;;;3.31;68.52
69566;BME280;56777;55.930;37.524;2023-12-04T11:58:09;101502.09;;;3.12;69.44
69566;BME280;56777;55.930;37.524;2023-12-04T12:00:36;101509.19;;;3.29;68.73
69566;BME280;56777;55.930;37.524;2023-12-04T12:03:05;101508.06;;;3.26;68.24
69566;BME280;56777;55.930;37.524;2023-12-04T12:05:33;101511.63;;;3.13;68.48
69566;BME280;56777;55.930;37.524;2023-12-04T12:08:05;101525.91;;;3.06;68.83
69566;BME280;56777;55.930;37.524;2023-12-04T12:10:35;101529.13;;;3.17;68.12
69566;BME280;56777;55.930;37.524;2023-12-04T12:13:01;101519.16;;;3.23;67.32
69566;BME280;56777;55.930;37.524;2023-12-04T12:15:27;101513.34;;;3.12;68.40
69566;BME280;56777;55.930;37.524;2023-12-04T12:17:53;101528.34;;;3.18;68.04
69566;BME280;56777;55.930;37.524;2023-12-04T12:20:19;101525.78;;;2.90;68.28
69566;BME280;56777;55.930;37.524;2023-12-04T12:22:49;101541.91;;;3.14;68.73
69566;BME280;56777;55.930;37.524;2023-12-04T12:25:14;101547.22;;;3.30;68.62
69566;BME280;56777;55.930;37.524;2023-12-04T12:27:40;101544.31;;;3.11;68.53
69566;BME280;56777;55.930;37.524;2023-12-04T12:30:07;101538.53;;;2.87;68.13
69566;BME280;56777;55.930;37.524;2023-12-04T12:32:38;101560.53;;;3.08;67.81
69566;BME280;56777;55.930;37.524;2023-12-04T12:35:05;101566.28;;;3.17;67.78
69566;BME280;56777;55.930;37.524;2023-12-04T12:37:33;101572.72;;;3.09;67.50
69566;BME280;56777;55.930;37.524;2023-12-04T12:39:58;101564.28;;;2.99;66.96
69566;BME280;56777;55.930;37.524;2023-12-04T12:42:25;101573.88;;;3.14;67.29
69566;BME280;56777;55.930;37.524;2023-12-04T12:44:51;101566.25;;;3.03;66.41